Terminal Aerodrome Forecast
Issued by NWS Pittsburgh, PA

Current Version | Previous Version | Graphics & Text | Print | Product List | Glossary On
Versions: 1 2 3 4 5 6 7 8 9 10 11 12 13 14 15 16 17 18 19 20 21 22 23 24 25 26 27 28 29
000
FTUS41 KPBZ 232000 AAA
TAFPIT
TAF AMD
KPIT 232018Z 2320/2424 29013KT P6SM SCT025 BKN035
     FM232100 33012KT P6SM BKN025
     FM240800 34006KT 5SM BR BKN015
     FM241400 36008KT P6SM BKN035=

USA.gov is the U.S. government's official web portal to all federal, state and local government web resources and services.